createdAt,value
2023-03-05T00:01:27.871Z,13.07
2023-03-05T00:03:57.493Z,13.47
2023-03-05T00:06:28.306Z,13.97
2023-03-05T00:08:58.191Z,13.13
2023-03-05T00:11:28.112Z,13.13
2023-03-05T00:13:56.649Z,12.47
2023-03-05T00:16:27.259Z,11.97
2023-03-05T00:18:56.305Z,12.27
2023-03-05T00:21:26.226Z,12.97
2023-03-05T00:23:55.554Z,12.27
2023-03-05T00:26:25.898Z,12.10
2023-03-05T00:28:53.928Z,12.50
2023-03-05T00:31:24.725Z,12.57
2023-03-05T00:33:55.551Z,13.00
2023-03-05T00:36:24.429Z,12.77
2023-03-05T00:38:52.351Z,12.57
2023-03-05T00:41:20.279Z,12.97
2023-03-05T00:43:48.671Z,11.97
2023-03-05T00:46:17.014Z,12.97
2023-03-05T00:48:45.048Z,13.37
2023-03-05T00:51:14.351Z,12.83
2023-03-05T00:53:42.276Z,13.60
2023-03-05T00:56:10.402Z,12.33
2023-03-05T00:58:39.036Z,12.07
2023-03-05T01:01:08.237Z,11.87
2023-03-05T01:03:37.242Z,12.90
2023-03-05T01:06:08.006Z,12.67
2023-03-05T01:08:38.233Z,12.60
2023-03-05T01:11:07.603Z,12.07
2023-03-05T01:13:35.854Z,11.90
2023-03-05T01:16:04.411Z,12.73
2023-03-05T01:18:32.508Z,12.70
2023-03-05T01:21:00.592Z,12.67
2023-03-05T01:23:28.701Z,12.53
2023-03-05T01:26:00.264Z,12.37
2023-03-05T01:28:28.768Z,11.63
2023-03-05T01:30:56.932Z,12.47
2023-03-05T01:33:24.900Z,11.97
2023-03-05T01:35:53.267Z,11.67
2023-03-05T01:38:21.208Z,11.70
2023-03-05T01:40:49.540Z,12.70
2023-03-05T01:43:25.616Z,12.03
2023-03-05T01:46:26.908Z,12.03
2023-03-05T01:49:02.198Z,11.60
2023-03-05T01:51:33.732Z,11.03
2023-03-05T01:54:03.222Z,11.93
2023-03-05T01:56:32.209Z,11.43
2023-03-05T01:59:04.284Z,11.43
2023-03-05T02:01:34.774Z,10.73
2023-03-05T02:04:03.339Z,10.43
2023-03-05T02:06:31.492Z,11.40
2023-03-05T02:09:00.640Z,10.57
2023-03-05T02:11:28.659Z,10.63
2023-03-05T02:13:57.706Z,10.57
2023-03-05T02:16:27.278Z,10.43
2023-03-05T02:18:55.241Z,10.53
2023-03-05T02:21:37.744Z,10.60
2023-03-05T02:24:06.461Z,9.87
2023-03-05T02:26:34.344Z,10.83
2023-03-05T02:29:04.114Z,11.00
2023-03-05T02:31:32.080Z,10.50
2023-03-05T02:34:01.901Z,9.50
2023-03-05T02:36:31.648Z,9.83
2023-03-05T02:38:59.989Z,9.87
2023-03-05T02:41:28.758Z,9.67
2023-03-05T02:43:58.806Z,9.47
2023-03-05T02:46:27.063Z,10.07
2023-03-05T02:48:54.971Z,9.20
2023-03-05T02:51:22.898Z,9.70
2023-03-05T02:53:52.608Z,9.03
2023-03-05T02:56:21.195Z,10.00
2023-03-05T02:58:49.217Z,9.23
2023-03-05T03:01:17.296Z,9.77
2023-03-05T03:03:45.631Z,8.83
2023-03-05T03:06:13.545Z,9.20
2023-03-05T03:08:41.427Z,9.47
2023-03-05T03:11:12.767Z,9.50
2023-03-05T03:13:41.146Z,8.60
2023-03-05T03:16:10.913Z,8.63
2023-03-05T03:18:39.192Z,8.73
2023-03-05T03:21:07.664Z,8.77
2023-03-05T03:23:35.890Z,8.37
2023-03-05T03:26:03.881Z,8.90
2023-03-05T03:28:33.304Z,8.23
2023-03-05T03:31:01.300Z,7.97
2023-03-05T03:33:29.237Z,9.20
2023-03-05T03:35:57.157Z,8.27
2023-03-05T03:38:25.294Z,8.40
2023-03-05T03:40:53.228Z,8.47
2023-03-05T03:43:21.223Z,8.67
2023-03-05T03:45:50.568Z,7.87
2023-03-05T03:48:18.513Z,7.60
2023-03-05T03:50:46.486Z,8.37
2023-03-05T03:53:14.485Z,8.23
2023-03-05T03:55:43.977Z,7.77
2023-03-05T03:58:12.017Z,8.30
2023-03-05T04:00:41.509Z,7.93
2023-03-05T04:03:10.880Z,7.63
2023-03-05T04:05:38.789Z,8.63
2023-03-05T04:08:11.876Z,8.30
2023-03-05T04:10:39.966Z,8.17
2023-03-05T04:13:08.144Z,8.07
2023-03-05T04:15:36.059Z,8.73
2023-03-05T04:18:04.151Z,8.40
2023-03-05T04:20:33.415Z,8.30
2023-03-05T04:23:01.334Z,8.27
2023-03-05T04:25:29.222Z,7.53
2023-03-05T04:27:57.220Z,7.80
2023-03-05T04:30:25.100Z,7.70
2023-03-05T04:32:53.038Z,8.53
2023-03-05T04:35:21.700Z,8.50
2023-03-05T04:37:51.236Z,8.20
2023-03-05T04:40:19.728Z,7.83
2023-03-05T04:42:47.758Z,7.90
2023-03-05T04:45:17.165Z,7.47
2023-03-05T04:47:45.688Z,7.60
2023-03-05T04:50:14.289Z,7.67
2023-03-05T04:52:43.618Z,8.47
2023-03-05T04:55:14.268Z,8.17
2023-03-05T04:57:42.499Z,8.07
2023-03-05T05:00:14.456Z,7.53
2023-03-05T05:02:42.863Z,8.00
2023-03-05T05:05:13.168Z,8.50
2023-03-05T05:07:41.106Z,8.90
2023-03-05T05:10:10.562Z,8.27
2023-03-05T05:12:40.806Z,8.97
2023-03-05T05:15:10.231Z,8.80
2023-03-05T05:17:38.484Z,8.33
2023-03-05T05:20:08.348Z,8.90
2023-03-05T05:22:36.651Z,8.37
2023-03-05T05:25:05.202Z,7.70
2023-03-05T05:27:33.296Z,8.60
2023-03-05T05:30:04.024Z,9.07
2023-03-05T05:32:31.999Z,8.83
2023-03-05T05:35:00.482Z,9.57
2023-03-05T05:37:28.716Z,8.87
2023-03-05T05:39:56.596Z,8.13
2023-03-05T05:42:25.949Z,8.73
2023-03-05T05:44:55.401Z,8.90
2023-03-05T05:47:24.709Z,8.77
2023-03-05T05:49:52.822Z,8.77
2023-03-05T05:52:20.723Z,9.00
2023-03-05T05:54:49.075Z,9.50
2023-03-05T05:57:17.095Z,9.30
2023-03-05T05:59:44.988Z,9.13
2023-03-05T06:02:13.094Z,9.00
2023-03-05T06:04:42.355Z,9.70
2023-03-05T06:07:10.372Z,10.03
2023-03-05T06:09:38.322Z,10.40
2023-03-05T06:12:07.645Z,9.60
2023-03-05T06:14:35.702Z,10.33
2023-03-05T06:17:03.838Z,9.10
2023-03-05T06:19:31.808Z,9.70
2023-03-05T06:22:01.199Z,9.33
2023-03-05T06:24:29.133Z,9.30
2023-03-05T06:26:57.104Z,9.67
2023-03-05T06:29:25.030Z,10.03
2023-03-05T06:31:53.007Z,10.50
2023-03-05T06:34:20.993Z,10.27
2023-03-05T06:36:48.896Z,9.63
2023-03-05T06:39:18.264Z,9.83
2023-03-05T06:41:46.180Z,10.00
2023-03-05T06:44:14.113Z,9.87
2023-03-05T06:46:42.034Z,9.83
2023-03-05T06:49:11.677Z,10.17
2023-03-05T06:51:41.070Z,10.37
2023-03-05T06:54:11.865Z,9.80
2023-03-05T06:56:43.418Z,9.63
2023-03-05T06:59:12.746Z,10.13
2023-03-05T07:01:40.722Z,9.50
2023-03-05T07:04:08.900Z,10.00
2023-03-05T07:06:39.182Z,10.63
2023-03-05T07:09:10.063Z,9.60
2023-03-05T07:11:38.013Z,9.63
2023-03-05T07:14:07.493Z,9.77
2023-03-05T07:16:35.841Z,9.77
2023-03-05T07:19:06.514Z,9.93
2023-03-05T07:21:39.272Z,10.40
2023-03-05T07:24:09.390Z,10.30
2023-03-05T07:26:37.600Z,10.10
2023-03-05T07:29:07.046Z,10.23
2023-03-05T07:31:35.036Z,10.47
2023-03-05T07:34:04.139Z,9.90
2023-03-05T07:36:34.862Z,11.37
2023-03-05T07:39:04.715Z,13.97
2023-03-05T07:41:32.910Z,11.13
2023-03-05T07:44:00.955Z,10.73
2023-03-05T07:46:32.650Z,10.60
2023-03-05T07:49:01.035Z,10.10
2023-03-05T07:51:29.775Z,12.87
2023-03-05T07:53:59.381Z,12.23
2023-03-05T07:56:31.577Z,11.70
2023-03-05T07:58:59.861Z,10.80
2023-03-05T08:01:28.553Z,12.50
2023-03-05T08:03:57.906Z,12.80
2023-03-05T08:06:25.908Z,11.20
2023-03-05T08:08:53.895Z,12.00
2023-03-05T08:11:22.155Z,11.70
2023-03-05T08:13:50.138Z,10.63
2023-03-05T08:16:19.789Z,10.20
2023-03-05T08:18:48.345Z,10.87
2023-03-05T08:21:19.804Z,10.63
2023-03-05T08:23:48.033Z,11.77
2023-03-05T08:26:17.988Z,13.93
2023-03-05T08:28:46.185Z,10.53
2023-03-05T08:31:15.587Z,11.20
2023-03-05T08:33:43.994Z,10.90
2023-03-05T08:36:13.259Z,9.90
2023-03-05T08:38:45.218Z,10.60
2023-03-05T08:41:13.381Z,10.50
2023-03-05T08:43:41.304Z,11.67
2023-03-05T08:46:10.928Z,10.30
2023-03-05T08:48:38.882Z,10.63
2023-03-05T08:51:08.670Z,9.10
2023-03-05T08:53:36.576Z,10.73
2023-03-05T08:56:06.690Z,9.83
2023-03-05T08:58:34.803Z,10.03
2023-03-05T09:01:03.529Z,9.90
2023-03-05T09:03:32.192Z,11.13
2023-03-05T09:06:01.879Z,9.57
2023-03-05T09:08:30.933Z,10.97
2023-03-05T09:10:59.179Z,10.27
2023-03-05T09:13:28.395Z,11.13
2023-03-05T09:15:57.077Z,10.20
2023-03-05T09:18:24.997Z,9.30
2023-03-05T09:20:52.835Z,9.93
2023-03-05T09:23:20.749Z,11.20
2023-03-05T09:25:49.410Z,10.40
2023-03-05T09:28:18.103Z,9.93
2023-03-05T09:30:47.496Z,9.70
2023-03-05T09:33:15.607Z,11.03
2023-03-05T09:35:43.820Z,9.93
2023-03-05T09:38:11.779Z,11.47
2023-03-05T09:40:54.549Z,10.50
2023-03-05T09:43:31.958Z,10.10
2023-03-05T09:46:11.392Z,10.60
2023-03-05T09:48:50.687Z,10.63
2023-03-05T09:51:24.162Z,10.47
2023-03-05T09:54:01.641Z,11.10
2023-03-05T09:56:33.559Z,12.53
2023-03-05T09:59:07.284Z,11.17
2023-03-05T10:01:39.807Z,10.93
2023-03-05T10:04:12.501Z,11.57
2023-03-05T10:06:49.745Z,10.47
2023-03-05T10:09:28.756Z,10.47
2023-03-05T10:12:01.011Z,10.67
2023-03-05T10:14:31.558Z,10.33
2023-03-05T10:17:25.127Z,9.93
2023-03-05T10:20:24.860Z,10.03
2023-03-05T10:23:15.208Z,10.63
2023-03-05T10:25:55.660Z,10.47
2023-03-05T10:28:30.529Z,10.87
2023-03-05T10:31:11.760Z,10.30
2023-03-05T10:33:52.569Z,11.57
2023-03-05T10:36:49.006Z,12.20
2023-03-05T10:39:50.604Z,10.30
2023-03-05T10:42:31.041Z,10.33
2023-03-05T10:45:00.612Z,11.13
2023-03-05T10:47:36.701Z,10.57
2023-03-05T10:50:17.059Z,11.50
2023-03-05T10:52:48.519Z,11.50
2023-03-05T10:55:18.695Z,13.07
2023-03-05T10:57:47.393Z,11.97
2023-03-05T11:00:21.019Z,10.87
2023-03-05T11:02:58.747Z,13.23
2023-03-05T11:05:42.466Z,12.03
2023-03-05T11:08:25.896Z,12.27
2023-03-05T11:11:14.542Z,12.83
2023-03-05T11:13:53.746Z,13.10
2023-03-05T11:16:24.212Z,11.30
2023-03-05T11:19:17.464Z,11.53
2023-03-05T11:21:48.249Z,13.03
2023-03-05T11:24:18.743Z,12.07
2023-03-05T11:26:49.889Z,11.13
2023-03-05T11:29:22.054Z,12.80
2023-03-05T11:31:50.442Z,13.00
2023-03-05T11:34:31.406Z,11.87
2023-03-05T11:37:06.550Z,13.00
2023-03-05T11:39:38.412Z,11.93
2023-03-05T11:42:11.521Z,11.73
2023-03-05T11:44:47.869Z,11.37
2023-03-05T11:47:24.167Z,10.60
2023-03-05T11:49:56.221Z,10.70
2023-03-05T11:52:30.961Z,12.50
2023-03-05T11:55:04.953Z,11.73
2023-03-05T11:57:47.252Z,13.17
2023-03-05T12:00:20.011Z,14.00
2023-03-05T12:02:53.879Z,14.80
2023-03-05T12:05:22.456Z,11.53
2023-03-05T12:07:56.344Z,11.17
2023-03-05T12:10:26.634Z,11.73
2023-03-05T12:13:00.490Z,11.63
2023-03-05T12:15:59.992Z,10.07
2023-03-05T12:18:39.368Z,11.10
2023-03-05T12:21:09.195Z,10.43
2023-03-05T12:23:50.159Z,10.17
2023-03-05T12:26:18.494Z,9.20
2023-03-05T12:28:57.767Z,9.80
2023-03-05T12:31:35.325Z,9.70
2023-03-05T12:34:50.258Z,9.63
2023-03-05T12:38:17.126Z,11.13
2023-03-05T12:40:53.718Z,10.03
2023-03-05T12:43:32.741Z,10.07
2023-03-05T12:46:26.771Z,10.13
2023-03-05T12:48:54.982Z,10.33
2023-03-05T12:51:31.740Z,9.77
2023-03-05T12:54:18.231Z,10.00
2023-03-05T12:56:48.854Z,10.23
2023-03-05T12:59:20.883Z,9.77
2023-03-05T13:01:54.989Z,9.97
2023-03-05T13:04:26.194Z,10.57
2023-03-05T13:07:02.178Z,9.00
2023-03-05T13:09:33.590Z,10.23
2023-03-05T13:12:06.065Z,9.33
2023-03-05T13:14:37.911Z,10.40
2023-03-05T13:17:26.322Z,10.03
2023-03-05T13:19:55.029Z,11.20
2023-03-05T13:22:24.619Z,10.70
2023-03-05T13:25:11.718Z,10.97
2023-03-05T13:27:41.473Z,9.93
2023-03-05T13:30:22.770Z,9.63
2023-03-05T13:32:53.273Z,8.83
2023-03-05T13:35:22.513Z,8.67
2023-03-05T13:37:50.920Z,8.57
2023-03-05T13:40:24.501Z,9.63
2023-03-05T13:42:55.733Z,8.77
2023-03-05T13:45:28.928Z,8.93
2023-03-05T13:47:59.210Z,8.93
2023-03-05T13:50:29.921Z,8.43
2023-03-05T13:52:59.384Z,8.73
2023-03-05T13:55:27.404Z,9.13
2023-03-05T13:57:56.663Z,8.57
2023-03-05T14:00:31.457Z,8.73
2023-03-05T14:03:02.350Z,8.87
2023-03-05T14:05:32.078Z,9.40
2023-03-05T14:08:00.125Z,9.83
2023-03-05T14:10:34.333Z,9.53
2023-03-05T14:13:07.733Z,10.50
2023-03-05T14:15:36.931Z,9.10
2023-03-05T14:18:19.427Z,9.83
2023-03-05T14:21:03.231Z,9.83
2023-03-05T14:23:40.778Z,10.30
2023-03-05T14:26:33.492Z,9.90
2023-03-05T14:29:05.742Z,8.90
2023-03-05T14:31:39.798Z,9.47
2023-03-05T14:34:08.691Z,8.63
2023-03-05T14:36:38.968Z,8.77
2023-03-05T14:39:06.931Z,9.80
2023-03-05T14:41:39.545Z,10.87
2023-03-05T14:44:13.789Z,11.13
2023-03-05T14:46:42.192Z,12.63
2023-03-05T14:49:10.502Z,12.27
2023-03-05T14:51:42.901Z,10.80
2023-03-05T14:54:21.527Z,11.70
2023-03-05T14:56:49.868Z,11.13
2023-03-05T14:59:21.169Z,10.80
2023-03-05T15:01:50.523Z,10.93
2023-03-05T15:04:20.087Z,10.60
2023-03-05T15:06:50.888Z,10.20
2023-03-05T15:09:20.458Z,10.77
2023-03-05T15:11:49.253Z,11.07
2023-03-05T15:14:17.195Z,10.60
2023-03-05T15:16:48.724Z,11.50
2023-03-05T15:19:18.475Z,10.40
2023-03-05T15:21:46.406Z,11.43
2023-03-05T15:24:14.823Z,11.20
2023-03-05T15:26:42.714Z,12.03
2023-03-05T15:29:10.636Z,15.87
2023-03-05T15:31:40.403Z,11.40
2023-03-05T15:34:09.830Z,11.53
2023-03-05T15:36:37.694Z,11.23
2023-03-05T15:39:05.595Z,10.90
2023-03-05T15:41:33.531Z,11.60
2023-03-05T15:44:01.459Z,12.77
2023-03-05T15:46:29.473Z,11.20
2023-03-05T15:48:57.452Z,11.63
2023-03-05T15:51:26.731Z,11.77
2023-03-05T15:53:54.621Z,12.30
2023-03-05T15:56:22.485Z,11.23
2023-03-05T15:58:51.167Z,12.60
2023-03-05T16:01:20.714Z,13.13
2023-03-05T16:03:49.419Z,12.03
2023-03-05T16:06:22.512Z,12.30
2023-03-05T16:08:56.109Z,11.30
2023-03-05T16:11:24.048Z,11.27
2023-03-05T16:13:51.963Z,12.33
2023-03-05T16:16:20.203Z,12.93
2023-03-05T16:18:49.523Z,9.67
2023-03-05T16:21:17.556Z,11.27
2023-03-05T16:23:45.472Z,11.63
2023-03-05T16:26:14.933Z,11.57
2023-03-05T16:28:43.031Z,12.37
2023-03-05T16:31:11.219Z,11.37
2023-03-05T16:33:39.160Z,11.53
2023-03-05T16:36:25.689Z,9.67
2023-03-05T16:38:55.495Z,9.13
2023-03-05T16:41:25.213Z,9.27
2023-03-05T16:43:56.246Z,9.70
2023-03-05T16:46:25.014Z,9.50
2023-03-05T16:48:53.246Z,9.47
2023-03-05T16:51:21.673Z,9.90
2023-03-05T16:53:50.184Z,9.97
2023-03-05T16:56:18.183Z,10.13
2023-03-05T16:58:47.526Z,9.70
2023-03-05T17:01:18.089Z,12.17
2023-03-05T17:03:46.091Z,10.13
2023-03-05T17:06:17.220Z,10.13
2023-03-05T17:08:46.180Z,10.33
2023-03-05T17:11:14.856Z,12.50
2023-03-05T17:13:43.218Z,9.03
2023-03-05T17:16:15.423Z,10.63
2023-03-05T17:18:43.398Z,9.03
2023-03-05T17:21:13.399Z,9.63
2023-03-05T17:23:42.028Z,9.17
2023-03-05T17:26:12.613Z,9.27
2023-03-05T17:28:41.006Z,9.90
2023-03-05T17:31:09.328Z,10.70
2023-03-05T17:33:41.447Z,9.73
2023-03-05T17:36:15.134Z,9.80
2023-03-05T17:38:43.490Z,13.13
2023-03-05T17:41:11.587Z,10.43
2023-03-05T17:43:39.522Z,11.17
2023-03-05T17:46:07.943Z,10.47
2023-03-05T17:48:38.782Z,10.07
2023-03-05T17:51:09.270Z,10.27
2023-03-05T17:53:39.303Z,13.27
2023-03-05T17:56:08.924Z,11.30
2023-03-05T17:58:37.125Z,17.70
2023-03-05T18:01:05.506Z,12.43
2023-03-05T18:03:33.585Z,10.97
2023-03-05T18:06:01.534Z,11.67
2023-03-05T18:08:30.760Z,12.27
2023-03-05T18:10:58.847Z,13.40
2023-03-05T18:13:26.718Z,13.13
2023-03-05T18:15:54.949Z,11.83
2023-03-05T18:18:22.824Z,11.90
2023-03-05T18:20:50.905Z,12.37
2023-03-05T18:23:18.982Z,13.07
2023-03-05T18:25:48.342Z,12.87
2023-03-05T18:28:17.118Z,14.57
2023-03-05T18:30:46.428Z,11.83
2023-03-05T18:33:19.398Z,11.87
2023-03-05T18:35:49.556Z,11.17
2023-03-05T18:38:17.531Z,11.33
2023-03-05T18:40:46.369Z,11.27
2023-03-05T18:43:17.147Z,12.13
2023-03-05T18:45:46.788Z,12.63
2023-03-05T18:48:14.776Z,20.63
2023-03-05T18:50:42.991Z,13.07
2023-03-05T18:53:13.751Z,11.43
2023-03-05T18:55:42.802Z,14.10
2023-03-05T18:58:14.023Z,14.03
2023-03-05T19:00:44.927Z,13.50
2023-03-05T19:03:13.247Z,14.70
2023-03-05T19:05:42.098Z,14.37
2023-03-05T19:08:10.391Z,11.93
2023-03-05T19:10:38.371Z,10.43
2023-03-05T19:13:15.701Z,10.60
2023-03-05T19:15:45.170Z,10.70
2023-03-05T19:18:13.173Z,11.20
2023-03-05T19:20:41.189Z,10.97
2023-03-05T19:23:09.092Z,11.37
2023-03-05T19:25:36.929Z,11.90
2023-03-05T19:28:04.962Z,11.37
2023-03-05T19:30:33.032Z,10.60
2023-03-05T19:33:03.602Z,9.93
2023-03-05T19:35:31.846Z,9.90
2023-03-05T19:37:59.839Z,10.00
2023-03-05T19:40:27.809Z,9.60
2023-03-05T19:42:55.699Z,10.17
2023-03-05T19:45:23.580Z,10.00
2023-03-05T19:47:51.523Z,10.80
2023-03-05T19:50:21.165Z,10.60
2023-03-05T19:52:49.466Z,10.83
2023-03-05T19:55:17.542Z,11.23
2023-03-05T19:57:46.386Z,11.83
2023-03-05T20:00:14.772Z,11.77
2023-03-05T20:02:42.718Z,11.67
2023-03-05T20:05:10.855Z,11.93
2023-03-05T20:07:40.100Z,11.50
2023-03-05T20:10:08.541Z,12.43
2023-03-05T20:12:36.563Z,12.37
2023-03-05T20:15:04.708Z,12.30
2023-03-05T20:17:32.947Z,11.67
2023-03-05T20:20:00.990Z,11.43
2023-03-05T20:22:28.845Z,11.10
2023-03-05T20:24:58.555Z,11.23
2023-03-05T20:27:26.399Z,11.20
2023-03-05T20:29:54.288Z,11.30
2023-03-05T20:32:22.206Z,11.83
2023-03-05T20:34:52.018Z,11.53
2023-03-05T20:37:21.392Z,12.03
2023-03-05T20:39:50.932Z,11.57
2023-03-05T20:42:20.153Z,10.80
2023-03-05T20:44:48.288Z,11.50
2023-03-05T20:47:30.718Z,11.00
2023-03-05T20:49:58.592Z,10.30
2023-03-05T20:52:26.495Z,11.50
2023-03-05T20:54:54.381Z,10.03
2023-03-05T20:57:23.671Z,11.10
2023-03-05T20:59:51.586Z,11.20
2023-03-05T21:02:19.562Z,11.20
2023-03-05T21:04:47.538Z,11.10
2023-03-05T21:07:15.755Z,11.57
2023-03-05T21:09:43.656Z,10.77
2023-03-05T21:12:11.762Z,10.67
2023-03-05T21:14:41.043Z,10.63
2023-03-05T21:17:09.846Z,11.10
2023-03-05T21:19:39.782Z,10.80
2023-03-05T21:22:07.664Z,10.20
2023-03-05T21:24:52.009Z,10.43
2023-03-05T21:27:19.957Z,10.17
2023-03-05T21:29:49.182Z,10.37
2023-03-05T21:32:17.131Z,10.67
2023-03-05T21:34:45.363Z,9.43
2023-03-05T21:37:13.314Z,9.80
2023-03-05T21:39:41.202Z,10.07
2023-03-05T21:42:10.515Z,10.10
2023-03-05T21:44:38.672Z,10.30
2023-03-05T21:47:07.907Z,10.17
2023-03-05T21:49:35.831Z,9.43
2023-03-05T21:52:09.225Z,9.20
2023-03-05T21:54:37.676Z,9.47
2023-03-05T21:57:06.628Z,8.77
2023-03-05T21:59:35.012Z,8.37
2023-03-05T22:02:03.146Z,9.20
2023-03-05T22:04:32.400Z,8.50
2023-03-05T22:07:00.258Z,8.73
2023-03-05T22:09:28.388Z,9.00
2023-03-05T22:11:56.399Z,7.87
2023-03-05T22:14:24.432Z,8.00
2023-03-05T22:16:53.614Z,7.60
2023-03-05T22:19:21.644Z,8.60
2023-03-05T22:21:50.862Z,8.30
2023-03-05T22:24:18.839Z,8.80
2023-03-05T22:26:46.864Z,8.07
2023-03-05T22:29:16.786Z,8.37
2023-03-05T22:31:45.725Z,8.17
2023-03-05T22:34:13.694Z,8.70
2023-03-05T22:36:42.019Z,8.20
2023-03-05T22:39:11.295Z,7.90
2023-03-05T22:41:41.514Z,7.50
2023-03-05T22:44:09.413Z,7.90
2023-03-05T22:46:37.356Z,7.90
2023-03-05T22:49:05.313Z,8.30
2023-03-05T22:51:33.192Z,8.70
2023-03-05T22:54:01.122Z,8.77
2023-03-05T22:56:30.390Z,7.93
2023-03-05T22:58:58.426Z,7.70
2023-03-05T23:01:27.500Z,7.67
2023-03-05T23:04:03.332Z,7.37
2023-03-05T23:06:31.426Z,7.37
2023-03-05T23:08:59.356Z,7.27
2023-03-05T23:11:27.228Z,7.13
2023-03-05T23:13:56.508Z,7.20
2023-03-05T23:16:24.391Z,7.50
2023-03-05T23:18:52.336Z,7.47
2023-03-05T23:21:20.308Z,7.63
2023-03-05T23:23:48.196Z,7.10
2023-03-05T23:26:16.064Z,7.27
2023-03-05T23:28:44.035Z,6.87
2023-03-05T23:31:13.341Z,6.90
2023-03-05T23:33:41.355Z,7.30
2023-03-05T23:36:09.755Z,6.97
2023-03-05T23:38:37.935Z,7.93
2023-03-05T23:41:09.428Z,7.83
2023-03-05T23:43:37.396Z,7.60
2023-03-05T23:46:11.913Z,7.60
2023-03-05T23:48:41.933Z,6.90
2023-03-05T23:51:10.726Z,6.80
2023-03-05T23:53:38.943Z,7.00
2023-03-05T23:56:10.984Z,7.00
2023-03-05T23:58:39.365Z,7.10
